This is the latest recevied weather packets stored in our database for station/object N0OQA. If no packets are shown the sender has not sent any weather packets the latest 10 day(s).
| Time | Temp. | Humidity | Pressure | Rain* | Wind** | Luminosity | Snow |
|---|---|---|---|---|---|---|---|
| 1777697758 | 3.89° C | 63% | 1020.8 hPa | 0 mm | - | - | - |
| 1777696556 | 3.33° C | 63% | 1020.8 hPa | 0 mm | - | - | - |
| 1777695955 | 3.33° C | 63% | 1020.8 hPa | 0 mm | - | - | - |
| 1777695055 | 3.89° C | 66% | 1020.8 hPa | 0 mm | - | - | - |
| 1777650012 | 7.22° C | 48% | 1021.6 hPa | 0 mm | - | - | - |
| 1777648810 | 7.22° C | 49% | 1021.5 hPa | 0 mm | - | - | - |
| 1777646108 | 6.67° C | 54% | 1021.6 hPa | 0 mm | - | - | - |
| 1777641303 | 5° C | 65% | 1021.3 hPa | 0 mm | - | - | - |
| 1777641003 | 4.44° C | 64% | 1021.3 hPa | 0 mm | - | - | - |
| 1777640703 | 4.44° C | 65% | 1021.3 hPa | 0 mm | - | - | - |
| 1777640402 | 4.44° C | 67% | 1021.3 hPa | 0 mm | - | - | - |
| 1777640102 | 4.44° C | 67% | 1021.2 hPa | 0 mm | - | - | - |
| 1777639501 | 4.44° C | 68% | 1021.2 hPa | 0 mm | - | - | - |
| 1777638901 | 3.89° C | 69% | 1021.1 hPa | 0 mm | - | - | - |
| 1777638300 | 3.89° C | 69% | 1020.3 hPa | 0 mm | - | - | - |
| 1777637399 | 3.89° C | 69% | 1020.8 hPa | 0 mm | - | - | - |
| 1777637099 | 3.89° C | 69% | 1020.7 hPa | 0 mm | - | - | - |
| 1777636799 | 3.89° C | 70% | 1020.7 hPa | 0 mm | - | - | - |
| 1777636499 | 3.33° C | 69% | 1020.6 hPa | 0 mm | - | - | - |
| 1777636198 | 3.33° C | 70% | 1020.5 hPa | 0 mm | - | - | - |
| 1777635898 | 3.33° C | 70% | 1020.4 hPa | 0 mm | - | - | - |
| 1777635598 | 3.33° C | 70% | 1020.4 hPa | 0 mm | - | - | - |
| 1777635297 | 3.33° C | 70% | 1020.4 hPa | 0 mm | - | - | - |
| 1777634997 | 3.33° C | 70% | 1020.4 hPa | 0 mm | - | - | - |
| 1777634696 | 3.33° C | 70% | 1020.4 hPa | 0 mm | - | - | - |
* Rain since midnight (hover to see other rain measurements)
** Current wind speed in m/s (hover to see current wind gust speed)